Time;durP1;ratioP1;P1;durP2;ratioP2;P2;SDS_P1;SDS_P2;PMS_P1;PMS_P2;Temp;Humidity;BMP_temperature;BMP_pressure;BME280_temperature;BME280_humidity;BME280_pressure;Samples;Min_cycle;Max_cycle;Signal;HPM_P1;HPM_P2
2022/11/03 00:02:07;;;;;;;11.73;3.60;;;;;;;;;;4943324;28;20065;-77
2022/11/03 00:04:33;;;;;;;9.43;3.28;;;;;;;;;;4945385;28;20043;-77
2022/11/03 00:06:59;;;;;;;12.32;3.63;;;;;;;;;;4939474;28;20384;-77
2022/11/03 00:09:26;;;;;;;11.70;3.95;;;;;;;;;;4939493;29;20047;-77
2022/11/03 00:11:52;;;;;;;10.93;3.30;;;;;;;;;;4945714;28;20498;-77
2022/11/03 00:14:18;;;;;;;9.23;3.35;;;;;;;;;;4937601;28;20059;-77
2022/11/03 00:16:44;;;;;;;11.20;3.55;;;;;;;;;;4972393;28;20047;-76
2022/11/03 00:19:12;;;;;;;10.68;3.50;;;;;;;;;;4941767;28;20858;-77
2022/11/03 00:21:38;;;;;;;9.82;3.20;;;;;;;;;;4948199;28;20094;-76
2022/11/03 00:24:04;;;;;;;9.32;2.80;;;;;;;;;;4971061;28;20055;-77
2022/11/03 00:26:31;;;;;;;14.82;4.10;;;;;;;;;;4942698;28;20051;-77
2022/11/03 00:29:02;;;;;;;9.18;3.22;;;;;;;;;;4978897;28;20074;-77
2022/11/03 00:31:29;;;;;;;13.70;3.42;;;;;;;;;;4944066;28;20281;-76
2022/11/03 00:33:55;;;;;;;9.13;3.55;;;;;;;;;;4940229;28;20047;-76
2022/11/03 00:36:23;;;;;;;12.48;3.40;;;;;;;;;;4943425;28;21336;-77
2022/11/03 00:38:49;;;;;;;11.70;3.60;;;;;;;;;;4937687;28;21499;-77
2022/11/03 00:41:15;;;;;;;14.30;3.45;;;;;;;;;;4976198;28;20042;-77
2022/11/03 00:43:41;;;;;;;10.65;3.50;;;;;;;;;;4944608;28;20086;-77
2022/11/03 00:46:08;;;;;;;13.20;3.80;;;;;;;;;;4947819;28;20043;-76
2022/11/03 00:48:34;;;;;;;8.52;3.08;;;;;;;;;;4943687;28;20452;-76
2022/11/03 00:51:21;;;;;;;8.05;3.05;;;;;;;;;;4942235;28;20110;-77
2022/11/03 00:53:48;;;;;;;9.82;3.45;;;;;;;;;;4944991;28;20054;-77
2022/11/03 00:56:19;;;;;;;6.90;2.83;;;;;;;;;;4973324;28;20050;-77
2022/11/03 00:58:45;;;;;;;8.13;3.35;;;;;;;;;;4963400;28;20043;-77
2022/11/03 01:01:11;;;;;;;14.82;3.63;;;;;;;;;;4947564;28;20079;-76
2022/11/03 01:03:37;;;;;;;8.73;3.30;;;;;;;;;;4977661;28;20059;-76
2022/11/03 01:08:52;;;;;;;13.43;4.22;;;;;;;;;;4932126;28;20048;-77
2022/11/03 01:14:05;;;;;;;9.48;3.70;;;;;;;;;;4959885;28;20455;-76
2022/11/03 01:16:32;;;;;;;7.45;3.47;;;;;;;;;;4942663;28;20056;-76
2022/11/03 01:18:58;;;;;;;15.45;3.85;;;;;;;;;;4945662;28;20046;-77
2022/11/03 01:21:27;;;;;;;13.45;3.78;;;;;;;;;;4943639;28;20043;-77
2022/11/03 01:23:53;;;;;;;10.05;3.20;;;;;;;;;;4939734;28;20170;-77
2022/11/03 01:26:19;;;;;;;9.32;3.65;;;;;;;;;;4976233;28;20058;-76
2022/11/03 01:28:45;;;;;;;10.65;3.70;;;;;;;;;;4947253;28;20057;-76
2022/11/03 01:31:12;;;;;;;8.63;3.20;;;;;;;;;;4943347;28;20495;-77
2022/11/03 01:33:38;;;;;;;9.55;3.10;;;;;;;;;;4941270;28;20171;-77
2022/11/03 01:36:04;;;;;;;11.43;3.83;;;;;;;;;;4969294;28;20481;-77
2022/11/03 01:38:31;;;;;;;10.43;3.80;;;;;;;;;;4971431;28;20673;-77
2022/11/03 01:40:57;;;;;;;12.95;3.55;;;;;;;;;;4945830;28;20389;-77
2022/11/03 01:43:26;;;;;;;12.60;3.40;;;;;;;;;;4941911;28;20082;-77
2022/11/03 01:45:59;;;;;;;8.77;3.17;;;;;;;;;;4943306;28;20047;-76
2022/11/03 01:48:25;;;;;;;9.50;3.90;;;;;;;;;;4943602;28;20376;-77
2022/11/03 01:50:51;;;;;;;12.45;3.13;;;;;;;;;;4945254;28;20049;-77
2022/11/03 01:53:18;;;;;;;11.20;3.72;;;;;;;;;;4949282;28;20090;-77
2022/11/03 01:55:46;;;;;;;9.55;3.58;;;;;;;;;;4947072;28;20496;-77
2022/11/03 01:58:15;;;;;;;11.70;3.53;;;;;;;;;;4947102;28;20043;-76
2022/11/03 02:00:43;;;;;;;9.48;3.30;;;;;;;;;;4981469;28;20133;-76
2022/11/03 02:03:09;;;;;;;12.63;3.83;;;;;;;;;;4949331;28;20051;-77
2022/11/03 02:05:36;;;;;;;9.30;3.50;;;;;;;;;;4952879;28;20066;-77
2022/11/03 02:08:07;;;;;;;9.57;3.33;;;;;;;;;;4948039;28;20052;-77
2022/11/03 02:10:34;;;;;;;13.93;3.70;;;;;;;;;;4977485;28;20098;-77
2022/11/03 02:13:01;;;;;;;10.48;3.20;;;;;;;;;;4947421;28;20106;-77
2022/11/03 02:15:28;;;;;;;11.57;3.47;;;;;;;;;;4948383;28;20098;-77
2022/11/03 02:17:54;;;;;;;13.05;3.53;;;;;;;;;;4953392;28;20050;-77
2022/11/03 02:20:23;;;;;;;10.10;3.38;;;;;;;;;;4951149;28;20055;-77
2022/11/03 02:23:02;;;;;;;8.80;3.80;;;;;;;;;;4952659;28;20039;-77
2022/11/03 02:25:28;;;;;;;9.45;3.30;;;;;;;;;;4942883;28;20474;-77
2022/11/03 02:27:54;;;;;;;14.25;4.57;;;;;;;;;;4944674;28;20122;-77
2022/11/03 02:30:20;;;;;;;10.50;3.50;;;;;;;;;;4982424;28;20049;-77
2022/11/03 02:32:56;;;;;;;12.15;3.20;;;;;;;;;;4948891;28;20661;-77
2022/11/03 02:35:27;;;;;;;11.05;3.35;;;;;;;;;;4942528;28;20047;-77
2022/11/03 02:37:55;;;;;;;9.75;3.55;;;;;;;;;;4945387;28;20114;-77
2022/11/03 02:40:25;;;;;;;9.48;3.40;;;;;;;;;;4949504;28;20040;-77
2022/11/03 02:42:52;;;;;;;11.00;3.65;;;;;;;;;;4947793;28;20051;-77
2022/11/03 02:45:22;;;;;;;7.13;3.22;;;;;;;;;;4948252;28;20373;-77
2022/11/03 02:47:49;;;;;;;9.90;3.25;;;;;;;;;;4942538;28;20083;-77
2022/11/03 02:50:15;;;;;;;9.45;3.17;;;;;;;;;;4969850;28;20230;-76
2022/11/03 02:52:42;;;;;;;12.50;3.38;;;;;;;;;;4949700;28;20066;-76
2022/11/03 02:55:12;;;;;;;10.95;3.30;;;;;;;;;;4948878;28;20047;-77
2022/11/03 02:57:53;;;;;;;9.52;3.45;;;;;;;;;;4949104;28;20047;-77
2022/11/03 03:00:19;;;;;;;12.10;3.92;;;;;;;;;;4947811;28;20417;-76
2022/11/03 03:02:54;;;;;;;9.45;3.50;;;;;;;;;;4976263;28;21765;-76
2022/11/03 03:05:23;;;;;;;13.82;3.65;;;;;;;;;;4978936;28;20117;-77
2022/11/03 03:07:51;;;;;;;9.70;3.72;;;;;;;;;;4950810;28;20043;-76
2022/11/03 03:10:19;;;;;;;8.63;3.30;;;;;;;;;;4945949;28;20521;-77
2022/11/03 03:12:50;;;;;;;9.35;3.30;;;;;;;;;;4952539;29;20408;-76
2022/11/03 03:15:18;;;;;;;16.70;4.03;;;;;;;;;;4948006;28;20051;-76
2022/11/03 03:17:49;;;;;;;8.80;3.05;;;;;;;;;;4978655;28;20039;-77
2022/11/03 03:20:28;;;;;;;13.05;3.80;;;;;;;;;;4947890;28;20051;-76
2022/11/03 03:23:02;;;;;;;10.38;3.70;;;;;;;;;;4948155;28;20050;-76
2022/11/03 03:25:33;;;;;;;11.18;4.25;;;;;;;;;;4950618;28;20050;-77
2022/11/03 03:28:05;;;;;;;4.20;2.78;;;;;;;;;;4942885;28;20052;-77
2022/11/03 03:30:33;;;;;;;10.43;3.58;;;;;;;;;;4939217;28;20134;-76
2022/11/03 03:32:59;;;;;;;9.77;3.10;;;;;;;;;;4943261;28;20058;-76
2022/11/03 03:35:27;;;;;;;10.07;3.25;;;;;;;;;;4946141;28;20441;-76
2022/11/03 03:37:55;;;;;;;7.43;3.10;;;;;;;;;;4941434;28;20051;-77
2022/11/03 03:40:24;;;;;;;10.90;3.70;;;;;;;;;;4948307;28;20057;-76
2022/11/03 03:42:51;;;;;;;9.70;3.50;;;;;;;;;;4944531;28;20488;-76
2022/11/03 03:45:18;;;;;;;10.63;3.60;;;;;;;;;;4953272;28;20066;-76
2022/11/03 03:47:46;;;;;;;10.68;3.25;;;;;;;;;;4948725;28;20491;-77
2022/11/03 03:50:13;;;;;;;11.02;3.80;;;;;;;;;;4943982;28;20396;-76
2022/11/03 03:52:39;;;;;;;11.25;3.35;;;;;;;;;;4949657;28;20089;-76
2022/11/03 03:55:07;;;;;;;9.77;3.45;;;;;;;;;;4952615;28;20035;-76
2022/11/03 03:57:33;;;;;;;7.45;3.20;;;;;;;;;;4946444;28;20087;-77
2022/11/03 03:59:59;;;;;;;8.13;3.53;;;;;;;;;;4946298;28;20470;-76
2022/11/03 04:02:25;;;;;;;9.48;3.28;;;;;;;;;;4950605;28;20055;-76
2022/11/03 04:04:51;;;;;;;8.98;3.38;;;;;;;;;;4948926;28;20122;-76
2022/11/03 04:10:01;;;;;;;10.35;3.63;;;;;;;;;;4945177;28;20047;-76
2022/11/03 04:23:27;;;;;;;10.77;4.28;;;;;;;;;;4944198;28;20050;-76
2022/11/03 04:25:54;;;;;;;12.23;4.00;;;;;;;;;;4947394;28;20082;-76
2022/11/03 04:28:20;;;;;;;12.40;3.40;;;;;;;;;;4948926;28;20415;-76
2022/11/03 04:30:47;;;;;;;12.15;3.97;;;;;;;;;;4971515;28;20046;-76
2022/11/03 04:33:22;;;;;;;8.40;3.55;;;;;;;;;;4947241;28;20058;-76
2022/11/03 04:35:48;;;;;;;9.88;3.22;;;;;;;;;;4971005;28;20671;-76
2022/11/03 04:38:14;;;;;;;13.40;4.10;;;;;;;;;;4932282;28;20094;-76
2022/11/03 04:40:45;;;;;;;10.00;3.35;;;;;;;;;;4941858;28;20396;-76
2022/11/03 04:43:13;;;;;;;9.68;3.33;;;;;;;;;;4950781;28;20090;-76
2022/11/03 04:45:39;;;;;;;9.95;3.90;;;;;;;;;;4945528;28;20047;-77
2022/11/03 04:48:15;;;;;;;9.27;3.28;;;;;;;;;;4976554;28;20070;-76
2022/11/03 04:50:42;;;;;;;12.25;4.65;;;;;;;;;;4944896;28;20058;-76
2022/11/03 04:53:13;;;;;;;8.40;3.33;;;;;;;;;;4950308;28;20051;-76
2022/11/03 04:55:40;;;;;;;10.15;3.33;;;;;;;;;;4974141;28;20550;-76
2022/11/03 04:58:14;;;;;;;12.80;3.70;;;;;;;;;;4982328;28;20091;-76
2022/11/03 05:00:43;;;;;;;10.57;3.60;;;;;;;;;;4940516;28;20047;-76
2022/11/03 05:03:14;;;;;;;10.13;3.40;;;;;;;;;;4985697;28;20130;-76
2022/11/03 05:05:40;;;;;;;6.85;3.35;;;;;;;;;;4945875;28;20053;-76
2022/11/03 05:08:08;;;;;;;11.18;3.60;;;;;;;;;;4948443;28;20418;-76
2022/11/03 05:10:34;;;;;;;7.82;3.33;;;;;;;;;;4968773;28;20071;-77
2022/11/03 05:13:01;;;;;;;12.27;3.60;;;;;;;;;;4952375;28;20090;-76
2022/11/03 05:15:29;;;;;;;9.15;3.42;;;;;;;;;;4975634;28;20469;-76
2022/11/03 05:17:55;;;;;;;11.20;3.45;;;;;;;;;;4955716;28;20083;-76
2022/11/03 05:20:38;;;;;;;11.50;3.33;;;;;;;;;;4940642;28;20054;-76
2022/11/03 05:23:04;;;;;;;9.53;3.30;;;;;;;;;;4947905;29;20971;-76
2022/11/03 05:25:44;;;;;;;15.18;3.90;;;;;;;;;;4944587;28;20941;-76
2022/11/03 05:28:19;;;;;;;10.80;3.53;;;;;;;;;;4947305;28;20043;-76
2022/11/03 05:30:47;;;;;;;10.02;3.80;;;;;;;;;;4949502;28;20062;-76
2022/11/03 05:33:33;;;;;;;9.85;3.92;;;;;;;;;;4943871;28;20480;-76
2022/11/03 05:36:11;;;;;;;8.13;3.83;;;;;;;;;;4944645;28;20102;-76
2022/11/03 05:38:37;;;;;;;10.35;3.60;;;;;;;;;;4949037;28;20133;-76
2022/11/03 05:41:11;;;;;;;14.00;3.90;;;;;;;;;;4951043;28;20089;-75
2022/11/03 05:43:37;;;;;;;12.13;3.38;;;;;;;;;;4950458;28;20438;-76
2022/11/03 05:46:03;;;;;;;9.88;3.78;;;;;;;;;;4946497;28;20079;-76
2022/11/03 05:48:29;;;;;;;13.57;4.18;;;;;;;;;;4978177;28;20417;-76
2022/11/03 05:50:59;;;;;;;7.50;3.28;;;;;;;;;;4946511;28;20035;-76
2022/11/03 05:53:31;;;;;;;13.20;3.60;;;;;;;;;;4951325;28;20142;-76
2022/11/03 05:55:59;;;;;;;11.02;3.47;;;;;;;;;;4946087;28;20127;-76
2022/11/03 05:58:31;;;;;;;8.70;3.28;;;;;;;;;;4943333;28;20058;-76
2022/11/03 06:00:58;;;;;;;10.45;3.50;;;;;;;;;;4977218;28;20125;-76
2022/11/03 06:03:25;;;;;;;10.68;3.42;;;;;;;;;;4952921;28;20089;-76
2022/11/03 06:05:52;;;;;;;9.50;3.70;;;;;;;;;;4946026;28;20712;-77
2022/11/03 06:08:23;;;;;;;8.63;3.20;;;;;;;;;;4943800;28;20431;-76
2022/11/03 06:10:51;;;;;;;18.52;7.32;;;;;;;;;;4941266;28;20640;-77
2022/11/03 06:13:19;;;;;;;9.73;4.63;;;;;;;;;;4977697;28;20054;-75
2022/11/03 06:15:46;;;;;;;7.97;3.10;;;;;;;;;;4947415;28;20496;-76
2022/11/03 06:18:24;;;;;;;9.02;3.60;;;;;;;;;;4949187;28;20058;-76
2022/11/03 06:20:52;;;;;;;8.93;3.83;;;;;;;;;;4948596;28;20058;-76
2022/11/03 06:23:19;;;;;;;8.27;3.30;;;;;;;;;;4948167;29;20469;-76
2022/11/03 06:25:53;;;;;;;11.15;3.58;;;;;;;;;;4938387;28;20140;-76
2022/11/03 06:28:19;;;;;;;;;;;;;;;;;;4969230;28;20054;-76
2022/11/03 06:30:45;;;;;;;11.88;3.83;;;;;;;;;;4939531;28;20315;-76
2022/11/03 06:33:28;;;;;;;7.63;3.08;;;;;;;;;;4941779;28;20119;-76
2022/11/03 06:35:55;;;;;;;9.30;3.17;;;;;;;;;;4951269;28;20058;-76
2022/11/03 06:38:23;;;;;;;10.00;3.65;;;;;;;;;;4944622;28;20503;-76
2022/11/03 06:40:50;;;;;;;9.15;3.17;;;;;;;;;;4940835;28;20054;-76
2022/11/03 06:43:19;;;;;;;9.13;3.60;;;;;;;;;;4938500;28;20082;-75
2022/11/03 06:45:50;;;;;;;9.35;3.45;;;;;;;;;;4947549;28;20411;-75
2022/11/03 06:48:20;;;;;;;10.18;3.47;;;;;;;;;;4983845;28;20053;-75
2022/11/03 06:50:46;;;;;;;10.15;3.40;;;;;;;;;;4948586;28;20047;-75
2022/11/03 06:53:18;;;;;;;13.00;3.58;;;;;;;;;;4950767;29;20051;-75
2022/11/03 06:55:46;;;;;;;10.73;3.15;;;;;;;;;;4950262;29;20110;-75
2022/11/03 06:58:11;;;;;;;6.65;3.17;;;;;;;;;;4951290;29;20102;-75
2022/11/03 07:00:39;;;;;;;7.95;3.38;;;;;;;;;;4952843;28;20051;-75
2022/11/03 07:03:30;;;;;;;9.48;3.20;;;;;;;;;;4944256;28;20055;-75
2022/11/03 07:06:14;;;;;;;7.97;3.63;;;;;;;;;;4945217;28;20058;-75
2022/11/03 07:08:42;;;;;;;10.35;3.33;;;;;;;;;;4977087;28;20062;-75
2022/11/03 07:11:14;;;;;;;9.50;3.30;;;;;;;;;;4952587;28;20089;-75
2022/11/03 07:13:41;;;;;;;8.45;3.30;;;;;;;;;;4951924;28;20075;-75
2022/11/03 07:16:15;;;;;;;7.78;3.08;;;;;;;;;;4951243;28;20403;-75
2022/11/03 07:18:42;;;;;;;9.30;3.50;;;;;;;;;;4946473;29;20047;-74
2022/11/03 07:21:27;;;;;;;7.35;2.78;;;;;;;;;;4952450;28;20047;-76
2022/11/03 07:23:53;;;;;;;11.90;3.58;;;;;;;;;;4946969;28;20149;-75
2022/11/03 07:26:19;;;;;;;7.13;2.85;;;;;;;;;;4952717;28;20051;-77
2022/11/03 07:28:47;;;;;;;10.00;3.53;;;;;;;;;;4946653;28;20070;-75
2022/11/03 07:31:19;;;;;;;8.23;3.30;;;;;;;;;;4983821;28;20057;-75
2022/11/03 07:33:45;;;;;;;8.90;3.10;;;;;;;;;;4946192;28;20399;-76
2022/11/03 07:36:15;;;;;;;6.60;3.22;;;;;;;;;;4952067;29;20047;-75
2022/11/03 07:38:41;;;;;;;11.35;3.80;;;;;;;;;;4948047;29;20118;-75
2022/11/03 07:41:11;;;;;;;8.77;3.35;;;;;;;;;;4947174;28;20134;-75
2022/11/03 07:43:37;;;;;;;8.27;3.17;;;;;;;;;;4946806;28;20078;-75
2022/11/03 07:46:04;;;;;;;9.05;3.03;;;;;;;;;;4939759;28;20121;-73
2022/11/03 07:48:39;;;;;;;8.07;3.33;;;;;;;;;;4983556;28;20047;-73
2022/11/03 07:51:24;;;;;;;7.63;3.05;;;;;;;;;;4947814;28;20394;-73
2022/11/03 07:53:52;;;;;;;7.30;3.53;;;;;;;;;;4943745;28;20138;-73
2022/11/03 07:56:20;;;;;;;9.68;3.35;;;;;;;;;;4947745;29;20574;-73
2022/11/03 07:58:47;;;;;;;8.70;2.90;;;;;;;;;;4952367;29;20082;-74
2022/11/03 08:01:25;;;;;;;9.60;3.70;;;;;;;;;;4949054;29;20051;-73
2022/11/03 08:03:51;;;;;;;9.60;3.40;;;;;;;;;;4943631;28;20067;-73
2022/11/03 08:06:17;;;;;;;10.23;3.33;;;;;;;;;;4980185;28;20058;-73
2022/11/03 08:08:46;;;;;;;9.75;3.40;;;;;;;;;;4950974;28;20050;-73
2022/11/03 08:11:12;;;;;;;7.95;2.78;;;;;;;;;;4952051;28;20039;-73
2022/11/03 08:13:38;;;;;;;7.75;3.15;;;;;;;;;;4947265;28;20174;-73
2022/11/03 08:16:14;;;;;;;7.82;3.38;;;;;;;;;;4950629;29;20126;-73
2022/11/03 08:18:40;;;;;;;11.20;3.50;;;;;;;;;;4945877;29;20071;-73
2022/11/03 08:21:06;;;;;;;5.88;2.88;;;;;;;;;;4949872;28;20059;-73
2022/11/03 08:23:32;;;;;;;10.23;3.70;;;;;;;;;;4946948;28;20047;-73
2022/11/03 08:25:58;;;;;;;7.88;2.70;;;;;;;;;;4978152;28;20047;-73
2022/11/03 08:28:24;;;;;;;7.20;3.10;;;;;;;;;;4950073;29;20553;-73
2022/11/03 08:30:50;;;;;;;5.97;3.28;;;;;;;;;;4947960;28;20040;-73
2022/11/03 08:33:16;;;;;;;6.40;3.20;;;;;;;;;;4951586;28;20375;-73
2022/11/03 08:35:42;;;;;;;6.95;2.90;;;;;;;;;;4952470;29;20081;-73
2022/11/03 08:38:08;;;;;;;10.18;3.83;;;;;;;;;;4945597;28;20082;-73
2022/11/03 08:40:34;;;;;;;5.93;3.10;;;;;;;;;;4950959;28;20046;-73
2022/11/03 08:43:01;;;;;;;8.20;3.42;;;;;;;;;;4945796;28;20407;-73
2022/11/03 08:45:28;;;;;;;8.32;3.20;;;;;;;;;;4949793;28;20058;-74
2022/11/03 08:47:55;;;;;;;8.63;3.20;;;;;;;;;;4951087;29;20051;-73
2022/11/03 08:50:21;;;;;;;6.03;3.03;;;;;;;;;;4945216;28;20391;-74
2022/11/03 08:52:48;;;;;;;7.30;3.25;;;;;;;;;;4943592;28;20078;-73
2022/11/03 08:55:14;;;;;;;8.70;3.28;;;;;;;;;;4950769;28;20039;-73
2022/11/03 08:57:40;;;;;;;7.90;3.60;;;;;;;;;;4980215;28;20039;-73
2022/11/03 09:00:09;;;;;;;10.65;3.65;;;;;;;;;;4948337;28;20353;-73
2022/11/03 09:02:35;;;;;;;7.80;2.75;;;;;;;;;;4949683;29;20418;-73
2022/11/03 09:05:02;;;;;;;7.25;3.13;;;;;;;;;;4957140;29;20390;-73
2022/11/03 09:07:28;;;;;;;9.25;3.80;;;;;;;;;;4957262;28;20066;-73
2022/11/03 09:09:54;;;;;;;6.50;3.35;;;;;;;;;;4953683;28;20055;-73
2022/11/03 09:12:21;;;;;;;7.13;4.00;;;;;;;;;;4948610;29;20048;-73
2022/11/03 09:14:47;;;;;;;7.60;3.28;;;;;;;;;;4956530;28;20519;-73
2022/11/03 09:17:13;;;;;;;3.75;3.30;;;;;;;;;;4951685;29;20079;-73
2022/11/03 09:19:39;;;;;;;7.20;3.25;;;;;;;;;;4956932;28;20079;-73
2022/11/03 09:22:05;;;;;;;9.23;3.90;;;;;;;;;;4954926;29;20117;-73
2022/11/03 09:24:31;;;;;;;6.38;3.13;;;;;;;;;;4957327;28;20050;-73
2022/11/03 09:26:57;;;;;;;8.70;3.72;;;;;;;;;;4954355;29;20138;-73
2022/11/03 09:29:23;;;;;;;8.45;3.55;;;;;;;;;;4953834;28;20046;-73
2022/11/03 09:31:49;;;;;;;4.80;3.15;;;;;;;;;;4947871;28;20043;-73
2022/11/03 09:34:15;;;;;;;8.90;3.75;;;;;;;;;;4955360;28;20039;-73
2022/11/03 09:36:41;;;;;;;7.07;3.17;;;;;;;;;;4956599;28;20051;-73
2022/11/03 09:39:10;;;;;;;9.35;3.58;;;;;;;;;;4953950;28;20138;-73
2022/11/03 09:41:36;;;;;;;7.60;3.60;;;;;;;;;;4958062;28;20434;-73
2022/11/03 09:44:02;;;;;;;11.57;3.67;;;;;;;;;;4957777;28;20138;-73
2022/11/03 09:46:29;;;;;;;6.38;3.45;;;;;;;;;;4951647;28;20583;-73
2022/11/03 09:48:56;;;;;;;9.93;3.70;;;;;;;;;;4951495;28;20492;-72
2022/11/03 09:51:22;;;;;;;6.80;3.15;;;;;;;;;;4989116;28;20062;-74
2022/11/03 09:53:56;;;;;;;7.80;3.70;;;;;;;;;;4956384;28;20453;-73
2022/11/03 09:56:22;;;;;;;;;;;;;;;;;;4987157;28;20046;-73
2022/11/03 09:58:48;;;;;;;10.75;3.25;;;;;;;;;;4959311;28;20291;-73
2022/11/03 10:01:14;;;;;;;5.75;3.45;;;;;;;;;;4957743;28;20057;-73
2022/11/03 10:03:40;;;;;;;9.45;3.58;;;;;;;;;;4951709;28;20102;-73
2022/11/03 10:06:06;;;;;;;8.93;3.60;;;;;;;;;;4957211;29;20065;-73
2022/11/03 10:08:34;;;;;;;7.53;3.30;;;;;;;;;;4989198;28;20049;-73
2022/11/03 10:11:01;;;;;;;10.48;4.93;;;;;;;;;;4951885;29;20123;-73
2022/11/03 10:13:27;;;;;;;9.35;3.50;;;;;;;;;;4953045;28;20051;-73
2022/11/03 10:15:53;;;;;;;14.95;4.30;;;;;;;;;;4953882;28;20051;-73
2022/11/03 10:18:19;;;;;;;7.35;3.22;;;;;;;;;;4953862;29;20031;-73
2022/11/03 10:20:45;;;;;;;6.95;3.40;;;;;;;;;;4951760;28;20083;-73
2022/11/03 10:23:11;;;;;;;7.80;3.22;;;;;;;;;;4948449;29;20081;-74
2022/11/03 10:25:39;;;;;;;7.35;3.75;;;;;;;;;;4985912;28;20053;-73
2022/11/03 10:28:15;;;;;;;8.70;3.58;;;;;;;;;;4952249;28;20040;-73
2022/11/03 10:30:53;;;;;;;9.20;3.30;;;;;;;;;;4980505;28;20564;-74
2022/11/03 10:33:33;;;;;;;12.70;4.20;;;;;;;;;;4948275;29;20043;-74
2022/11/03 10:36:00;;;;;;;8.77;5.13;;;;;;;;;;4949989;29;20047;-73
2022/11/03 10:38:33;;;;;;;10.57;6.10;;;;;;;;;;4982841;28;20403;-73
2022/11/03 10:41:10;;;;;;;18.60;9.32;;;;;;;;;;4954034;29;20065;-73
2022/11/03 10:43:37;;;;;;;15.40;7.28;;;;;;;;;;4946933;29;20142;-73
2022/11/03 10:46:11;;;;;;;13.73;7.03;;;;;;;;;;4952952;29;20464;-73
2022/11/03 10:48:37;;;;;;;14.68;6.97;;;;;;;;;;4980746;28;20047;-73
2022/11/03 10:51:03;;;;;;;17.13;7.50;;;;;;;;;;4952039;29;20055;-74
2022/11/03 10:53:30;;;;;;;18.13;7.45;;;;;;;;;;4951961;28;20518;-73
2022/11/03 10:55:56;;;;;;;16.40;6.95;;;;;;;;;;4951626;28;20051;-73
2022/11/03 10:58:22;;;;;;;13.85;5.88;;;;;;;;;;4984233;28;20393;-73
2022/11/03 11:00:48;;;;;;;17.25;7.28;;;;;;;;;;4953655;28;20043;-73
2022/11/03 11:03:14;;;;;;;14.38;6.65;;;;;;;;;;4948364;28;20130;-73
2022/11/03 11:05:45;;;;;;;12.32;5.35;;;;;;;;;;4953161;28;20109;-73
2022/11/03 11:08:13;;;;;;;12.25;4.82;;;;;;;;;;4979430;28;20102;-73
2022/11/03 11:10:43;;;;;;;12.70;4.95;;;;;;;;;;4946238;28;20462;-73
2022/11/03 11:13:16;;;;;;;11.60;4.85;;;;;;;;;;4943722;28;20381;-73
2022/11/03 11:15:44;;;;;;;14.32;4.93;;;;;;;;;;4986003;28;20043;-73
2022/11/03 11:18:11;;;;;;;11.45;5.38;;;;;;;;;;4949594;28;20113;-73
2022/11/03 11:20:40;;;;;;;10.95;5.20;;;;;;;;;;4952305;28;20055;-73
2022/11/03 11:23:24;;;;;;;14.50;5.50;;;;;;;;;;4951817;28;20050;-73
2022/11/03 11:26:09;;;;;;;12.55;5.80;;;;;;;;;;4944314;29;20083;-73
2022/11/03 11:28:36;;;;;;;11.05;4.53;;;;;;;;;;4947839;28;20081;-74
2022/11/03 11:31:02;;;;;;;9.68;4.25;;;;;;;;;;4949213;29;20058;-73
2022/11/03 11:33:30;;;;;;;9.65;3.50;;;;;;;;;;4950968;28;20443;-73
2022/11/03 11:35:56;;;;;;;9.20;3.40;;;;;;;;;;4952513;28;20264;-73
2022/11/03 11:38:41;;;;;;;8.27;3.53;;;;;;;;;;4949411;28;20369;-73
2022/11/03 11:41:07;;;;;;;6.97;3.50;;;;;;;;;;4983148;28;20051;-73
2022/11/03 11:43:33;;;;;;;10.02;3.40;;;;;;;;;;4951541;28;20043;-73
2022/11/03 11:46:18;;;;;;;9.13;3.30;;;;;;;;;;4985014;28;20515;-73
2022/11/03 11:48:44;;;;;;;8.93;3.35;;;;;;;;;;4941096;28;20051;-73
2022/11/03 11:51:11;;;;;;;7.53;3.10;;;;;;;;;;4950119;28;20051;-73
2022/11/03 11:53:39;;;;;;;8.93;3.50;;;;;;;;;;4949182;28;20051;-72
2022/11/03 11:56:07;;;;;;;8.27;3.45;;;;;;;;;;4949212;28;20091;-73
2022/11/03 11:58:36;;;;;;;8.77;3.35;;;;;;;;;;4951958;29;20142;-73
2022/11/03 12:01:04;;;;;;;10.30;3.53;;;;;;;;;;4946534;28;20073;-73
2022/11/03 12:03:35;;;;;;;9.23;3.00;;;;;;;;;;4947667;28;20138;-73
2022/11/03 12:06:02;;;;;;;10.80;3.22;;;;;;;;;;4982553;28;20633;-73
2022/11/03 12:08:29;;;;;;;7.35;3.35;;;;;;;;;;4948579;28;20039;-73
2022/11/03 12:10:58;;;;;;;7.35;3.08;;;;;;;;;;4946546;28;20470;-73
2022/11/03 12:13:36;;;;;;;7.32;3.22;;;;;;;;;;4946511;28;20050;-73
2022/11/03 12:16:03;;;;;;;6.63;3.20;;;;;;;;;;4946351;28;20467;-73
2022/11/03 12:18:29;;;;;;;9.07;3.20;;;;;;;;;;4947311;28;20082;-73
2022/11/03 12:20:55;;;;;;;7.28;3.70;;;;;;;;;;4952251;29;20047;-73
2022/11/03 12:23:42;;;;;;;8.82;4.18;;;;;;;;;;4947541;28;20043;-73
2022/11/03 12:26:14;;;;;;;8.27;3.85;;;;;;;;;;4939511;28;20098;-73
2022/11/03 12:28:40;;;;;;;8.10;3.40;;;;;;;;;;4947706;28;20049;-73
2022/11/03 12:31:06;;;;;;;6.60;3.38;;;;;;;;;;4982131;28;20047;-72
2022/11/03 12:33:32;;;;;;;7.28;3.28;;;;;;;;;;4942809;28;20051;-72
2022/11/03 12:35:58;;;;;;;5.97;2.92;;;;;;;;;;4977231;28;20043;-72
2022/11/03 12:38:24;;;;;;;7.00;3.35;;;;;;;;;;4951480;29;20047;-73
2022/11/03 12:40:52;;;;;;;8.20;3.28;;;;;;;;;;4980297;28;20091;-72
2022/11/03 12:43:18;;;;;;;7.32;3.10;;;;;;;;;;4949854;28;20051;-73
2022/11/03 12:45:44;;;;;;;9.15;3.30;;;;;;;;;;4950010;28;20110;-73
2022/11/03 12:48:11;;;;;;;9.65;3.25;;;;;;;;;;4981504;28;20054;-73
2022/11/03 12:50:38;;;;;;;6.60;3.10;;;;;;;;;;4943518;28;20048;-73
2022/11/03 12:53:05;;;;;;;8.05;2.90;;;;;;;;;;4948802;29;20110;-72
2022/11/03 12:55:31;;;;;;;10.80;3.40;;;;;;;;;;4948318;29;20054;-74
2022/11/03 12:57:57;;;;;;;6.38;2.95;;;;;;;;;;4949854;29;20039;-74
2022/11/03 13:00:23;;;;;;;8.73;3.20;;;;;;;;;;4951250;28;20079;-75
2022/11/03 13:02:49;;;;;;;7.68;2.80;;;;;;;;;;4950584;28;20090;-74
2022/11/03 13:05:15;;;;;;;7.40;3.15;;;;;;;;;;4980818;28;20051;-75
2022/11/03 13:07:42;;;;;;;7.00;3.30;;;;;;;;;;4948264;29;20062;-74
2022/11/03 13:10:08;;;;;;;7.68;3.20;;;;;;;;;;4951276;29;20058;-75
2022/11/03 13:12:37;;;;;;;7.60;3.05;;;;;;;;;;4970949;28;20035;-75
2022/11/03 13:15:05;;;;;;;6.97;2.97;;;;;;;;;;4981646;28;20051;-74
2022/11/03 13:17:32;;;;;;;6.60;3.15;;;;;;;;;;4946848;28;20040;-76
2022/11/03 13:19:58;;;;;;;7.43;3.13;;;;;;;;;;4948934;29;20063;-75
2022/11/03 13:22:24;;;;;;;10.63;3.47;;;;;;;;;;4940654;29;20052;-74
2022/11/03 13:24:50;;;;;;;8.27;3.15;;;;;;;;;;4942931;28;20055;-74
2022/11/03 13:27:17;;;;;;;5.15;2.80;;;;;;;;;;4945012;28;20047;-74
2022/11/03 13:29:43;;;;;;;6.50;3.08;;;;;;;;;;4946048;28;20051;-75
2022/11/03 13:32:09;;;;;;;6.78;3.13;;;;;;;;;;4947053;29;20107;-74
2022/11/03 13:34:35;;;;;;;8.90;3.25;;;;;;;;;;4948707;28;20047;-74
2022/11/03 13:37:01;;;;;;;7.53;3.30;;;;;;;;;;4953056;29;20088;-74
2022/11/03 13:39:27;;;;;;;5.13;2.95;;;;;;;;;;4949586;28;20380;-74
2022/11/03 13:41:53;;;;;;;6.80;3.00;;;;;;;;;;4945511;28;20065;-74
2022/11/03 13:44:19;;;;;;;7.35;3.40;;;;;;;;;;4949007;29;20059;-74
2022/11/03 13:46:45;;;;;;;7.75;3.20;;;;;;;;;;4951244;28;20044;-73
2022/11/03 13:49:11;;;;;;;6.40;3.05;;;;;;;;;;4949507;28;20086;-74
2022/11/03 13:51:37;;;;;;;8.38;3.47;;;;;;;;;;4954090;28;20039;-74
2022/11/03 13:54:03;;;;;;;5.13;2.85;;;;;;;;;;4954201;28;20043;-74
2022/11/03 13:56:29;;;;;;;6.93;2.75;;;;;;;;;;4954850;28;20055;-74
2022/11/03 13:58:55;;;;;;;9.13;3.55;;;;;;;;;;4948032;29;20155;-75
2022/11/03 14:01:21;;;;;;;8.35;3.47;;;;;;;;;;4952413;29;20241;-75
2022/11/03 14:03:47;;;;;;;6.38;2.75;;;;;;;;;;4952747;28;20150;-75
2022/11/03 14:06:13;;;;;;;7.13;2.88;;;;;;;;;;4986741;28;20055;-75
2022/11/03 14:08:39;;;;;;;5.88;3.13;;;;;;;;;;4953512;29;20078;-75
2022/11/03 14:13:49;;;;;;;9.50;3.17;;;;;;;;;;4978641;28;20056;-74
2022/11/03 14:16:15;;;;;;;9.63;3.10;;;;;;;;;;4982499;28;20051;-74
2022/11/03 14:18:42;;;;;;;5.95;3.05;;;;;;;;;;4952666;28;20043;-74
2022/11/03 14:21:08;;;;;;;8.20;3.10;;;;;;;;;;4953568;29;20051;-74
2022/11/03 14:23:34;;;;;;;5.32;3.03;;;;;;;;;;4955100;28;20050;-74
2022/11/03 14:26:00;;;;;;;7.57;3.15;;;;;;;;;;4947476;28;20039;-74
2022/11/03 14:28:26;;;;;;;9.07;2.83;;;;;;;;;;4955769;28;20134;-74
2022/11/03 14:30:54;;;;;;;6.97;2.92;;;;;;;;;;4952872;28;20226;-75
2022/11/03 14:33:20;;;;;;;7.82;3.10;;;;;;;;;;4951059;28;20055;-74
2022/11/03 14:35:46;;;;;;;8.07;3.45;;;;;;;;;;4950469;29;20047;-74
2022/11/03 14:38:12;;;;;;;6.65;3.20;;;;;;;;;;4952044;28;20051;-74
2022/11/03 14:43:22;;;;;;;7.05;3.20;;;;;;;;;;4952750;29;20133;-74
2022/11/03 14:45:48;;;;;;;9.82;3.92;;;;;;;;;;4949998;29;20154;-74
2022/11/03 14:48:14;;;;;;;5.22;2.70;;;;;;;;;;4952282;28;20049;-74
2022/11/03 14:50:40;;;;;;;9.20;3.20;;;;;;;;;;4947896;28;20055;-74
2022/11/03 14:53:06;;;;;;;6.53;3.20;;;;;;;;;;4985074;28;20047;-74
2022/11/03 14:55:32;;;;;;;6.15;3.10;;;;;;;;;;4947599;28;20058;-74
2022/11/03 14:57:58;;;;;;;5.65;3.15;;;;;;;;;;4950945;28;20401;-74
2022/11/03 15:00:25;;;;;;;5.53;2.80;;;;;;;;;;4948546;28;20392;-74
2022/11/03 15:02:51;;;;;;;7.18;3.17;;;;;;;;;;4953475;28;20121;-74
2022/11/03 15:08:01;;;;;;;7.00;3.13;;;;;;;;;;4953895;29;20051;-74
2022/11/03 15:10:27;;;;;;;5.28;2.90;;;;;;;;;;4953589;28;20047;-74
2022/11/03 15:12:53;;;;;;;5.63;2.95;;;;;;;;;;4950363;29;20044;-75